Time;durP1;ratioP1;P1;durP2;ratioP2;P2;SDS_P1;SDS_P2;PMS_P1;PMS_P2;Temp;Humidity;BMP_temperature;BMP_pressure;BME280_temperature;BME280_humidity;BME280_pressure;Samples;Min_cycle;Max_cycle;Signal;HPM_P1;HPM_P2
2022/08/17 00:01:34;;;;;;;11.75;10.52;;;;;;;;;;4997717;28;20201;-75
2022/08/17 00:04:22;;;;;;;13.65;11.13;;;;;;;;;;4997145;28;20209;-73
2022/08/17 00:06:52;;;;;;;11.85;10.75;;;;;;;;;;4997947;28;20242;-80
2022/08/17 00:09:20;;;;;;;13.23;10.57;;;;;;;;;;4997440;28;20225;-80
2022/08/17 00:11:49;;;;;;;11.32;10.32;;;;;;;;;;4997974;28;20200;-80
2022/08/17 00:14:38;;;;;;;12.30;11.20;;;;;;;;;;4997736;28;20271;-80
2022/08/17 00:17:08;;;;;;;13.65;12.13;;;;;;;;;;4997683;28;20325;-80
2022/08/17 00:19:36;;;;;;;12.27;11.27;;;;;;;;;;4997389;28;20287;-80
2022/08/17 00:22:06;;;;;;;12.88;11.57;;;;;;;;;;4997697;28;20654;-80
2022/08/17 00:24:55;;;;;;;12.13;11.07;;;;;;;;;;4977702;28;20202;-79
2022/08/17 00:27:23;;;;;;;13.32;12.20;;;;;;;;;;4978177;28;20232;-80
2022/08/17 00:29:52;;;;;;;16.73;13.77;;;;;;;;;;4978109;28;20638;-80
2022/08/17 00:32:21;;;;;;;14.98;13.68;;;;;;;;;;4978367;28;20615;-80
2022/08/17 00:35:11;;;;;;;14.80;13.35;;;;;;;;;;4977700;28;20264;-80
2022/08/17 00:37:40;;;;;;;14.38;13.07;;;;;;;;;;4977535;28;20206;-80
2022/08/17 00:40:09;;;;;;;14.13;12.73;;;;;;;;;;4977820;28;20240;-80
2022/08/17 00:42:38;;;;;;;14.02;12.57;;;;;;;;;;4977597;28;20205;-80
2022/08/17 00:45:07;;;;;;;13.80;12.52;;;;;;;;;;4977756;28;20205;-80
2022/08/17 00:47:37;;;;;;;13.35;12.25;;;;;;;;;;4977558;28;20225;-80
2022/08/17 00:50:06;;;;;;;13.00;11.70;;;;;;;;;;4977646;28;20225;-80
2022/08/17 00:52:36;;;;;;;13.25;11.85;;;;;;;;;;4977035;28;20206;-80
2022/08/17 00:55:06;;;;;;;11.40;10.20;;;;;;;;;;4977719;28;20186;-80
2022/08/17 00:57:37;;;;;;;11.55;10.65;;;;;;;;;;4976818;28;20663;-80
2022/08/17 01:00:08;;;;;;;13.70;12.00;;;;;;;;;;4977497;28;20229;-80
2022/08/17 01:02:41;;;;;;;14.45;11.70;;;;;;;;;;4977410;28;20213;-78
2022/08/17 01:05:13;;;;;;;13.15;11.90;;;;;;;;;;4977571;28;20228;-80
2022/08/17 01:07:42;;;;;;;13.10;11.82;;;;;;;;;;4978262;28;20219;-80
2022/08/17 01:10:13;;;;;;;13.32;12.02;;;;;;;;;;4977362;28;20230;-80
2022/08/17 01:13:02;;;;;;;13.00;11.70;;;;;;;;;;4977610;28;20237;-79
2022/08/17 01:15:30;;;;;;;13.80;12.50;;;;;;;;;;4976822;28;20217;-79
2022/08/17 01:18:00;;;;;;;15.00;13.32;;;;;;;;;;4990819;28;20205;-80
2022/08/17 01:20:29;;;;;;;13.35;12.00;;;;;;;;;;4996142;28;20213;-76
2022/08/17 01:23:11;;;;;;;14.77;13.50;;;;;;;;;;4996742;28;20193;-74
2022/08/17 01:25:49;;;;;;;14.50;13.15;;;;;;;;;;4995805;28;20217;-74
2022/08/17 01:28:18;;;;;;;14.65;13.25;;;;;;;;;;4995827;28;20235;-74
2022/08/17 01:31:07;;;;;;;13.73;12.35;;;;;;;;;;4996133;28;20209;-74
2022/08/17 01:33:36;;;;;;;14.88;13.02;;;;;;;;;;4995588;28;20205;-74
2022/08/17 01:36:05;;;;;;;14.60;12.52;;;;;;;;;;4985938;28;20204;-74
2022/08/17 01:38:35;;;;;;;13.70;12.45;;;;;;;;;;4984337;28;20228;-74
2022/08/17 01:41:06;;;;;;;14.20;12.82;;;;;;;;;;4995256;28;20208;-74
2022/08/17 01:43:37;;;;;;;14.15;12.82;;;;;;;;;;4995476;28;20212;-74
2022/08/17 01:46:06;;;;;;;15.57;13.50;;;;;;;;;;4976141;28;20252;-74
2022/08/17 01:48:37;;;;;;;15.00;13.15;;;;;;;;;;4993959;28;20272;-74
2022/08/17 01:51:06;;;;;;;13.38;12.07;;;;;;;;;;4981390;28;20197;-74
2022/08/17 01:53:38;;;;;;;12.48;11.27;;;;;;;;;;4995328;28;20705;-74
2022/08/17 01:56:08;;;;;;;13.50;12.10;;;;;;;;;;4995412;28;20267;-74
2022/08/17 01:58:37;;;;;;;12.18;10.88;;;;;;;;;;4976114;28;20217;-74
2022/08/17 02:01:06;;;;;;;12.57;11.35;;;;;;;;;;4990222;28;20209;-74
2022/08/17 02:03:36;;;;;;;12.32;11.30;;;;;;;;;;4995706;28;20544;-74
2022/08/17 02:06:06;;;;;;;13.70;12.30;;;;;;;;;;4994756;28;20209;-74
2022/08/17 02:08:56;;;;;;;13.00;11.38;;;;;;;;;;4994259;28;20229;-74
2022/08/17 02:11:31;;;;;;;12.75;11.40;;;;;;;;;;4994975;28;20205;-74
2022/08/17 02:14:00;;;;;;;14.02;12.57;;;;;;;;;;4994534;28;20217;-74
2022/08/17 02:16:30;;;;;;;13.73;12.52;;;;;;;;;;4994047;28;20300;-74
2022/08/17 02:19:06;;;;;;;13.13;11.93;;;;;;;;;;4994927;28;20245;-74
2022/08/17 02:21:35;;;;;;;14.30;12.82;;;;;;;;;;4975664;28;20206;-74
2022/08/17 02:24:05;;;;;;;12.65;11.55;;;;;;;;;;4987512;28;20209;-74
2022/08/17 02:26:34;;;;;;;12.77;11.57;;;;;;;;;;4995148;28;20689;-74
2022/08/17 02:29:02;;;;;;;13.20;11.75;;;;;;;;;;4994891;28;20232;-74
2022/08/17 02:31:31;;;;;;;14.45;12.10;;;;;;;;;;4994822;28;20260;-74
2022/08/17 02:34:00;;;;;;;13.60;12.18;;;;;;;;;;4994501;28;20211;-74
2022/08/17 02:36:33;;;;;;;13.45;12.13;;;;;;;;;;4994420;28;20185;-74
2022/08/17 02:39:01;;;;;;;12.25;11.15;;;;;;;;;;4994600;28;20686;-73
2022/08/17 02:41:31;;;;;;;13.52;12.25;;;;;;;;;;4995182;28;20209;-75
2022/08/17 02:44:00;;;;;;;13.80;12.52;;;;;;;;;;4995020;28;20213;-75
2022/08/17 02:46:29;;;;;;;12.93;11.80;;;;;;;;;;4994302;28;20263;-75
2022/08/17 02:48:57;;;;;;;12.55;11.52;;;;;;;;;;4995110;28;20748;-75
2022/08/17 02:51:26;;;;;;;14.27;12.82;;;;;;;;;;4995399;28;20205;-75
2022/08/17 02:53:55;;;;;;;14.02;12.60;;;;;;;;;;4994472;28;20213;-75
2022/08/17 02:56:45;;;;;;;13.48;12.27;;;;;;;;;;4995222;28;20630;-75
2022/08/17 02:59:13;;;;;;;14.33;12.87;;;;;;;;;;4994717;28;20221;-75
2022/08/17 03:01:41;;;;;;;14.57;13.18;;;;;;;;;;4994707;28;20212;-75
2022/08/17 03:04:10;;;;;;;13.65;12.52;;;;;;;;;;4994618;28;20201;-75
2022/08/17 03:06:38;;;;;;;13.53;12.33;;;;;;;;;;4994414;28;20209;-75
2022/08/17 03:09:07;;;;;;;13.70;12.57;;;;;;;;;;4994407;28;20229;-75
2022/08/17 03:11:35;;;;;;;13.67;12.47;;;;;;;;;;4994031;28;20208;-75
2022/08/17 03:14:05;;;;;;;13.60;12.40;;;;;;;;;;4994647;28;20705;-75
2022/08/17 03:16:34;;;;;;;13.20;11.90;;;;;;;;;;4994189;28;20201;-75
2022/08/17 03:19:03;;;;;;;12.87;11.57;;;;;;;;;;4994283;28;20217;-75
2022/08/17 03:21:32;;;;;;;13.63;12.43;;;;;;;;;;4994401;28;20227;-75
2022/08/17 03:24:00;;;;;;;12.83;11.63;;;;;;;;;;4993778;28;20208;-75
2022/08/17 03:26:36;;;;;;;13.30;12.03;;;;;;;;;;4993934;28;20279;-75
2022/08/17 03:29:06;;;;;;;13.93;12.63;;;;;;;;;;4994225;28;20233;-75
2022/08/17 03:31:34;;;;;;;13.83;12.50;;;;;;;;;;4993872;28;20209;-75
2022/08/17 03:34:04;;;;;;;13.27;12.00;;;;;;;;;;4994260;28;20669;-75
2022/08/17 03:36:33;;;;;;;14.43;13.07;;;;;;;;;;4993396;28;20205;-75
2022/08/17 03:39:03;;;;;;;14.30;13.00;;;;;;;;;;4993650;28;20248;-75
2022/08/17 03:41:31;;;;;;;14.40;13.10;;;;;;;;;;4993587;28;20296;-75
2022/08/17 03:44:00;;;;;;;14.50;13.30;;;;;;;;;;4994049;28;20213;-75
2022/08/17 03:57:35;;;;;;;14.00;12.80;;;;;;;;;;4993970;28;20186;-75
2022/08/17 04:00:04;;;;;;;13.57;12.37;;;;;;;;;;4994152;28;20233;-75
2022/08/17 04:02:35;;;;;;;13.93;12.53;;;;;;;;;;4994004;28;20207;-75
2022/08/17 04:05:05;;;;;;;14.20;12.87;;;;;;;;;;4993668;28;20186;-75
2022/08/17 04:07:34;;;;;;;15.13;13.73;;;;;;;;;;4993876;28;20186;-75
2022/08/17 04:10:03;;;;;;;14.23;12.93;;;;;;;;;;4993829;28;20276;-75
2022/08/17 04:12:42;;;;;;;14.77;13.57;;;;;;;;;;4993526;28;20216;-75
2022/08/17 04:15:12;;;;;;;14.63;13.23;;;;;;;;;;4993527;28;20275;-75
2022/08/17 04:17:43;;;;;;;14.53;13.33;;;;;;;;;;4993455;28;20293;-75
2022/08/17 04:20:12;;;;;;;13.23;12.13;;;;;;;;;;4993575;28;20233;-75
2022/08/17 04:22:40;;;;;;;15.40;13.80;;;;;;;;;;4993687;28;20209;-75
2022/08/17 04:25:10;;;;;;;14.67;13.37;;;;;;;;;;4993669;28;20213;-75
2022/08/17 04:27:38;;;;;;;14.83;13.43;;;;;;;;;;4993223;28;20209;-75
2022/08/17 04:30:07;;;;;;;16.07;13.20;;;;;;;;;;4993347;28;20233;-75
2022/08/17 04:32:51;;;;;;;14.80;12.63;;;;;;;;;;4994821;28;20204;-75
2022/08/17 04:35:36;;;;;;;15.90;13.57;;;;;;;;;;4997063;28;20303;-75
2022/08/17 04:38:04;;;;;;;15.00;13.60;;;;;;;;;;4996723;28;20244;-75
2022/08/17 04:43:20;;;;;;;14.93;13.40;;;;;;;;;;4996370;28;20244;-75
2022/08/17 04:45:50;;;;;;;15.23;13.80;;;;;;;;;;4997120;28;20201;-75
2022/08/17 04:48:24;;;;;;;15.43;14.10;;;;;;;;;;4996458;28;20220;-75
2022/08/17 04:51:05;;;;;;;15.90;14.43;;;;;;;;;;4996773;28;20192;-75
2022/08/17 04:53:34;;;;;;;15.20;13.70;;;;;;;;;;4996500;28;20185;-75
2022/08/17 04:56:03;;;;;;;16.10;14.60;;;;;;;;;;4997459;28;20221;-75
2022/08/17 04:58:31;;;;;;;15.77;14.20;;;;;;;;;;4978422;28;20229;-75
2022/08/17 05:01:00;;;;;;;15.70;14.40;;;;;;;;;;4976765;28;20205;-75
2022/08/17 05:03:29;;;;;;;18.47;14.63;;;;;;;;;;4977508;28;20208;-75
2022/08/17 05:05:58;;;;;;;14.17;12.93;;;;;;;;;;4977089;28;20236;-75
2022/08/17 05:08:28;;;;;;;15.57;13.93;;;;;;;;;;4976809;28;20225;-75
2022/08/17 05:10:56;;;;;;;17.37;14.47;;;;;;;;;;4977284;28;20225;-75
2022/08/17 05:13:28;;;;;;;16.63;14.97;;;;;;;;;;4976962;28;20214;-75
2022/08/17 05:15:57;;;;;;;15.60;14.10;;;;;;;;;;4977396;28;20190;-76
2022/08/17 05:18:25;;;;;;;16.37;14.30;;;;;;;;;;4976451;28;20237;-76
2022/08/17 05:20:54;;;;;;;15.37;14.03;;;;;;;;;;4976826;28;20206;-75
2022/08/17 05:23:24;;;;;;;15.10;13.67;;;;;;;;;;4976937;28;20607;-75
2022/08/17 05:25:55;;;;;;;16.10;14.47;;;;;;;;;;4976190;28;20210;-74
2022/08/17 05:28:26;;;;;;;15.40;13.80;;;;;;;;;;4976652;28;20249;-75
2022/08/17 05:30:55;;;;;;;17.57;15.70;;;;;;;;;;4976481;28;20256;-75
2022/08/17 05:33:25;;;;;;;18.77;15.35;;;;;;;;;;4975803;28;20206;-75
2022/08/17 05:35:55;;;;;;;15.40;14.07;;;;;;;;;;4976640;28;20221;-75
2022/08/17 05:38:25;;;;;;;16.63;14.88;;;;;;;;;;4976205;28;20234;-75
2022/08/17 05:40:55;;;;;;;17.85;15.15;;;;;;;;;;4976625;28;20233;-75
2022/08/17 05:43:24;;;;;;;19.33;15.70;;;;;;;;;;4975116;28;20237;-76
2022/08/17 05:46:05;;;;;;;20.60;16.27;;;;;;;;;;4975889;28;20213;-75
2022/08/17 05:48:36;;;;;;;20.17;15.45;;;;;;;;;;4977201;28;20284;-75
2022/08/17 05:51:24;;;;;;;19.08;15.32;;;;;;;;;;4974038;28;20222;-75
2022/08/17 05:53:58;;;;;;;19.13;15.63;;;;;;;;;;4975734;28;20194;-75
2022/08/17 05:56:38;;;;;;;21.95;16.13;;;;;;;;;;4974939;28;20249;-75
2022/08/17 05:59:11;;;;;;;17.75;15.90;;;;;;;;;;4976093;28;20230;-76
2022/08/17 06:01:46;;;;;;;17.20;15.23;;;;;;;;;;4976152;28;20635;-75
2022/08/17 06:04:19;;;;;;;17.00;15.30;;;;;;;;;;4975661;28;20193;-76
2022/08/17 06:06:52;;;;;;;18.02;16.38;;;;;;;;;;4975706;28;20201;-75
2022/08/17 06:09:26;;;;;;;17.27;15.60;;;;;;;;;;4975803;28;20226;-76
2022/08/17 06:12:05;;;;;;;17.85;16.25;;;;;;;;;;4975835;28;20195;-76
2022/08/17 06:14:50;;;;;;;16.38;14.88;;;;;;;;;;4975508;28;20261;-75
2022/08/17 06:17:21;;;;;;;16.38;14.77;;;;;;;;;;4975789;28;20190;-76
2022/08/17 06:19:53;;;;;;;15.80;14.25;;;;;;;;;;4975773;28;20264;-76
2022/08/17 06:22:24;;;;;;;15.65;14.05;;;;;;;;;;4975441;28;20190;-76
2022/08/17 06:24:55;;;;;;;15.15;13.75;;;;;;;;;;4975755;28;20194;-76
2022/08/17 06:27:29;;;;;;;15.57;14.05;;;;;;;;;;4975191;28;20198;-75
2022/08/17 06:30:01;;;;;;;16.15;14.52;;;;;;;;;;4974964;28;20225;-76
2022/08/17 06:32:30;;;;;;;14.88;13.40;;;;;;;;;;4975539;28;20218;-76
2022/08/17 06:34:59;;;;;;;14.68;13.30;;;;;;;;;;4975511;28;20671;-75
2022/08/17 06:37:38;;;;;;;13.80;12.48;;;;;;;;;;4975224;28;20212;-75
2022/08/17 06:40:15;;;;;;;13.88;12.63;;;;;;;;;;4975271;28;20218;-75
2022/08/17 06:42:51;;;;;;;14.13;12.93;;;;;;;;;;4974960;28;20202;-76
2022/08/17 06:45:35;;;;;;;12.32;11.27;;;;;;;;;;4974933;28;20200;-76
2022/08/17 06:48:07;;;;;;;12.82;11.63;;;;;;;;;;4975302;28;20663;-75
2022/08/17 06:50:38;;;;;;;13.07;11.98;;;;;;;;;;4974793;28;20210;-75
2022/08/17 06:53:12;;;;;;;12.80;10.50;;;;;;;;;;4975109;28;20651;-76
2022/08/17 06:55:44;;;;;;;11.02;9.77;;;;;;;;;;4974752;28;20602;-76
2022/08/17 06:58:15;;;;;;;9.60;8.60;;;;;;;;;;4975001;28;20632;-75
2022/08/17 07:00:45;;;;;;;8.40;7.45;;;;;;;;;;4974679;28;20254;-75
2022/08/17 07:03:19;;;;;;;7.90;7.13;;;;;;;;;;4974958;28;20189;-76
2022/08/17 07:05:51;;;;;;;9.20;7.65;;;;;;;;;;4974629;28;20190;-76
2022/08/17 07:08:23;;;;;;;9.63;7.20;;;;;;;;;;4974885;28;20226;-75
2022/08/17 07:11:01;;;;;;;9.25;7.30;;;;;;;;;;4974753;28;20210;-75
2022/08/17 07:13:34;;;;;;;7.90;7.18;;;;;;;;;;4974299;28;20186;-75
2022/08/17 07:16:08;;;;;;;7.80;7.03;;;;;;;;;;4974526;28;20194;-75
2022/08/17 07:18:36;;;;;;;7.82;7.15;;;;;;;;;;4974699;28;20225;-75
2022/08/17 07:21:10;;;;;;;7.82;7.10;;;;;;;;;;4974396;28;20210;-75
2022/08/17 07:23:53;;;;;;;7.93;7.03;;;;;;;;;;4974779;28;20198;-75
2022/08/17 07:26:23;;;;;;;8.40;7.18;;;;;;;;;;4974661;28;20206;-75
2022/08/17 07:28:54;;;;;;;9.00;6.72;;;;;;;;;;4974852;28;20277;-76
2022/08/17 07:31:25;;;;;;;12.98;7.35;;;;;;;;;;4974662;28;20679;-76
2022/08/17 07:34:02;;;;;;;13.20;6.97;;;;;;;;;;4974247;28;20194;-75
2022/08/17 07:36:32;;;;;;;11.73;6.72;;;;;;;;;;4974668;28;20193;-75
2022/08/17 07:39:01;;;;;;;10.05;6.60;;;;;;;;;;4974495;28;20587;-76
2022/08/17 07:41:32;;;;;;;11.40;6.43;;;;;;;;;;4974512;28;20202;-76
2022/08/17 07:44:22;;;;;;;10.07;6.18;;;;;;;;;;4974110;28;20209;-75
2022/08/17 07:49:39;;;;;;;6.28;5.68;;;;;;;;;;4974467;28;20229;-76
2022/08/17 07:52:09;;;;;;;6.43;5.78;;;;;;;;;;4974632;28;20628;-75
2022/08/17 07:54:57;;;;;;;8.00;6.00;;;;;;;;;;4974302;28;20206;-75
2022/08/17 07:57:34;;;;;;;6.57;5.55;;;;;;;;;;4974742;28;20198;-75
2022/08/17 08:00:22;;;;;;;6.28;5.32;;;;;;;;;;4974614;28;20561;-75
2022/08/17 08:03:13;;;;;;;10.70;5.82;;;;;;;;;;4974391;28;20289;-75
2022/08/17 08:05:51;;;;;;;9.48;5.68;;;;;;;;;;4974405;28;20632;-75
2022/08/17 08:08:26;;;;;;;6.20;5.53;;;;;;;;;;4977378;28;20194;-75
2022/08/17 08:11:00;;;;;;;5.95;5.00;;;;;;;;;;4977985;28;20613;-76
2022/08/17 08:13:31;;;;;;;6.25;5.40;;;;;;;;;;4977959;28;20260;-75
2022/08/17 08:16:13;;;;;;;5.93;5.43;;;;;;;;;;4977937;28;20277;-76
2022/08/17 08:18:43;;;;;;;8.68;5.53;;;;;;;;;;4977534;28;20225;-75
2022/08/17 08:21:32;;;;;;;6.22;5.72;;;;;;;;;;4977938;28;20186;-76
2022/08/17 08:24:05;;;;;;;6.63;5.82;;;;;;;;;;4977701;28;20604;-75
2022/08/17 08:26:36;;;;;;;6.82;5.55;;;;;;;;;;4977750;28;20233;-76
2022/08/17 08:29:08;;;;;;;6.70;4.93;;;;;;;;;;4977950;28;20221;-76
2022/08/17 08:31:47;;;;;;;7.30;5.05;;;;;;;;;;4977918;28;20210;-75
2022/08/17 08:34:31;;;;;;;6.03;5.40;;;;;;;;;;4977671;28;20190;-75
2022/08/17 08:37:23;;;;;;;6.78;5.30;;;;;;;;;;4977286;28;20260;-76
2022/08/17 08:40:09;;;;;;;5.55;4.75;;;;;;;;;;4977524;28;20799;-76
2022/08/17 08:42:42;;;;;;;5.47;4.97;;;;;;;;;;4977395;28;20584;-75
2022/08/17 08:45:14;;;;;;;6.63;5.13;;;;;;;;;;4977446;28;20685;-76
2022/08/17 08:47:50;;;;;;;7.75;4.85;;;;;;;;;;4977548;28;20198;-76
2022/08/17 08:50:25;;;;;;;6.75;4.80;;;;;;;;;;4977002;28;20710;-74
2022/08/17 08:53:11;;;;;;;6.65;5.13;;;;;;;;;;4977531;28;20555;-75
2022/08/17 08:55:45;;;;;;;5.35;4.70;;;;;;;;;;4977203;28;20199;-75
2022/08/17 08:58:16;;;;;;;7.80;5.03;;;;;;;;;;4976926;28;20563;-76
2022/08/17 09:01:09;;;;;;;5.63;4.72;;;;;;;;;;4976999;28;20233;-76
2022/08/17 09:03:49;;;;;;;8.48;4.75;;;;;;;;;;4976774;28;20241;-76
2022/08/17 09:06:32;;;;;;;6.55;5.03;;;;;;;;;;4976796;28;20194;-75
2022/08/17 09:09:12;;;;;;;7.13;5.30;;;;;;;;;;4977282;28;20312;-76
2022/08/17 09:11:44;;;;;;;6.05;4.75;;;;;;;;;;4977164;28;20261;-74
2022/08/17 09:14:35;;;;;;;4.93;4.38;;;;;;;;;;4990139;28;20223;-76
2022/08/17 09:17:15;;;;;;;5.45;4.95;;;;;;;;;;4996580;28;20626;-76
2022/08/17 09:19:47;;;;;;;5.60;4.80;;;;;;;;;;4997286;28;20225;-76
2022/08/17 09:22:30;;;;;;;8.35;4.85;;;;;;;;;;4995367;28;20244;-76
2022/08/17 09:25:02;;;;;;;8.02;5.03;;;;;;;;;;4996915;28;20693;-76
2022/08/17 09:27:33;;;;;;;5.97;4.70;;;;;;;;;;4995676;28;20601;-76
2022/08/17 09:30:07;;;;;;;7.00;4.82;;;;;;;;;;4995658;28;20236;-76
2022/08/17 09:32:38;;;;;;;6.68;4.50;;;;;;;;;;4995689;28;20256;-75
2022/08/17 09:35:12;;;;;;;8.73;4.60;;;;;;;;;;4996141;28;20241;-76
2022/08/17 09:37:54;;;;;;;5.90;4.00;;;;;;;;;;4995887;28;20244;-76
2022/08/17 09:40:24;;;;;;;6.88;4.07;;;;;;;;;;4995434;28;20637;-76
2022/08/17 09:42:56;;;;;;;5.95;4.35;;;;;;;;;;4995501;28;20217;-76
2022/08/17 09:45:30;;;;;;;6.05;4.10;;;;;;;;;;4995347;28;20205;-75
2022/08/17 09:48:03;;;;;;;6.50;3.90;;;;;;;;;;4995875;28;20204;-76
2022/08/17 09:50:36;;;;;;;4.57;3.92;;;;;;;;;;4976259;28;20186;-76
2022/08/17 09:53:26;;;;;;;9.98;4.45;;;;;;;;;;4976233;28;20345;-76
2022/08/17 09:56:03;;;;;;;6.70;4.00;;;;;;;;;;4976165;28;20607;-76
2022/08/17 09:58:39;;;;;;;8.40;3.75;;;;;;;;;;4975809;28;20310;-76
2022/08/17 10:01:12;;;;;;;6.07;4.10;;;;;;;;;;4975759;28;20201;-76
2022/08/17 10:03:49;;;;;;;5.97;3.60;;;;;;;;;;4975726;28;20190;-76
2022/08/17 10:06:21;;;;;;;3.78;3.45;;;;;;;;;;4975993;28;20639;-76
2022/08/17 10:08:54;;;;;;;9.75;3.75;;;;;;;;;;4975822;28;20230;-76
2022/08/17 10:12:14;;;;;;;5.55;3.75;;;;;;;;;;4976042;28;20190;-76
2022/08/17 10:14:21;;;;;;;4.78;4.00;;;;;;;;;;4984296;28;20249;-75
2022/08/17 10:17:11;;;;;;;7.95;4.00;;;;;;;;;;4995205;28;20654;-76
2022/08/17 10:19:41;;;;;;;6.50;3.78;;;;;;;;;;4994741;28;20276;-76
2022/08/17 10:28:15;;;;;;;4.10;3.70;;;;;;;;;;4994440;28;20263;-76
2022/08/17 10:30:51;;;;;;;5.22;3.88;;;;;;;;;;4994219;28;20228;-76
2022/08/17 10:33:47;;;;;;;4.40;4.00;;;;;;;;;;4994817;28;20752;-76
2022/08/17 10:36:19;;;;;;;6.38;3.75;;;;;;;;;;4994678;28;20219;-76
2022/08/17 10:38:48;;;;;;;6.15;3.83;;;;;;;;;;5014076;28;20647;-77
2022/08/17 10:41:24;;;;;;;5.30;4.22;;;;;;;;;;5014265;28;20205;-77
2022/08/17 10:43:57;;;;;;;4.32;3.70;;;;;;;;;;5014174;28;20192;-77
2022/08/17 10:46:51;;;;;;;7.25;3.83;;;;;;;;;;5014318;28;20650;-77
2022/08/17 10:49:24;;;;;;;4.72;3.80;;;;;;;;;;5013948;28;20282;-78
2022/08/17 10:51:53;;;;;;;6.43;3.55;;;;;;;;;;5014411;28;20201;-77
2022/08/17 10:54:35;;;;;;;4.38;3.75;;;;;;;;;;5013916;28;20215;-78
2022/08/17 10:57:23;;;;;;;5.03;3.70;;;;;;;;;;5014062;28;20189;-77
2022/08/17 10:59:52;;;;;;;3.70;3.40;;;;;;;;;;5013620;28;20224;-77
2022/08/17 11:02:26;;;;;;;5.13;3.45;;;;;;;;;;5002328;28;20205;-76
2022/08/17 11:05:01;;;;;;;4.28;2.90;;;;;;;;;;4993847;28;20185;-75
2022/08/17 11:07:39;;;;;;;2.42;2.33;;;;;;;;;;4994241;28;20212;-75
2022/08/17 11:10:18;;;;;;;3.17;2.90;;;;;;;;;;4994229;28;20220;-75
2022/08/17 11:12:53;;;;;;;3.90;2.85;;;;;;;;;;4993738;28;20205;-76
2022/08/17 11:15:25;;;;;;;4.38;2.47;;;;;;;;;;4993966;28;20223;-75
2022/08/17 11:18:08;;;;;;;4.97;2.85;;;;;;;;;;4994123;28;20193;-75
2022/08/17 11:20:46;;;;;;;5.10;3.38;;;;;;;;;;4994117;28;20192;-76
2022/08/17 11:23:23;;;;;;;3.72;3.30;;;;;;;;;;5003193;28;20585;-75
2022/08/17 11:25:53;;;;;;;6.55;3.50;;;;;;;;;;5013684;28;20188;-76
2022/08/17 11:28:25;;;;;;;6.00;3.20;;;;;;;;;;5013077;28;20191;-76
2022/08/17 11:30:55;;;;;;;3.28;2.90;;;;;;;;;;5013697;28;20630;-75
2022/08/17 11:33:43;;;;;;;3.20;2.70;;;;;;;;;;5009435;28;20255;-75
2022/08/17 11:36:17;;;;;;;4.38;2.80;;;;;;;;;;4992964;28;20193;-75
2022/08/17 11:38:48;;;;;;;4.03;2.70;;;;;;;;;;4993721;28;20229;-75
2022/08/17 11:41:21;;;;;;;2.38;2.17;;;;;;;;;;4995383;28;20197;-75
2022/08/17 11:44:04;;;;;;;3.47;2.80;;;;;;;;;;4997780;28;20194;-75
2022/08/17 11:52:31;;;;;;;4.93;2.70;;;;;;;;;;4996450;28;20252;-76
2022/08/17 11:54:59;;;;;;;4.65;2.65;;;;;;;;;;4995814;28;20336;-74
2022/08/17 11:57:59;;;;;;;3.50;2.53;;;;;;;;;;4996054;28;20283;-75
2022/08/17 12:00:48;;;;;;;5.35;2.50;;;;;;;;;;4996286;28;20192;-75
2022/08/17 12:03:22;;;;;;;5.03;2.60;;;;;;;;;;4995886;28;20185;-75
2022/08/17 12:05:52;;;;;;;5.28;2.50;;;;;;;;;;4995614;28;20195;-75
2022/08/17 12:08:21;;;;;;;4.38;2.58;;;;;;;;;;4995963;28;20221;-77
2022/08/17 12:10:56;;;;;;;3.50;2.50;;;;;;;;;;4996222;28;20216;-77
2022/08/17 12:13:25;;;;;;;5.10;2.65;;;;;;;;;;4997440;28;20228;-76
2022/08/17 12:16:00;;;;;;;5.75;2.60;;;;;;;;;;4997344;28;20197;-77
2022/08/17 12:18:31;;;;;;;3.08;2.72;;;;;;;;;;4996574;28;20229;-76
2022/08/17 12:21:03;;;;;;;3.10;2.80;;;;;;;;;;4997105;28;20190;-75
2022/08/17 12:23:36;;;;;;;3.45;2.50;;;;;;;;;;4997534;28;20674;-76
2022/08/17 12:26:08;;;;;;;5.93;3.08;;;;;;;;;;4997260;28;20189;-75
2022/08/17 12:28:37;;;;;;;5.85;2.70;;;;;;;;;;4996850;28;20225;-75
2022/08/17 12:31:07;;;;;;;4.60;2.75;;;;;;;;;;4997056;28;20213;-75
2022/08/17 12:33:43;;;;;;;5.10;2.80;;;;;;;;;;4996914;28;20607;-75
2022/08/17 12:36:14;;;;;;;7.90;3.13;;;;;;;;;;4996907;28;20637;-75
2022/08/17 12:38:50;;;;;;;3.15;2.70;;;;;;;;;;4997054;28;20598;-75
2022/08/17 12:41:30;;;;;;;4.43;3.00;;;;;;;;;;4996962;28;20189;-76
2022/08/17 12:44:01;;;;;;;3.22;2.80;;;;;;;;;;4996632;28;20189;-76
2022/08/17 12:46:32;;;;;;;3.40;3.10;;;;;;;;;;4996929;28;20213;-75
2022/08/17 12:49:21;;;;;;;5.65;3.38;;;;;;;;;;4996770;28;20236;-76
2022/08/17 12:51:50;;;;;;;5.05;3.30;;;;;;;;;;4996472;28;20247;-75
2022/08/17 12:54:22;;;;;;;6.00;3.33;;;;;;;;;;4995889;28;20222;-75
2022/08/17 12:56:51;;;;;;;5.85;3.00;;;;;;;;;;4996505;28;20240;-75
2022/08/17 12:59:20;;;;;;;4.70;3.08;;;;;;;;;;4996571;28;20617;-76
2022/08/17 13:01:57;;;;;;;5.03;3.15;;;;;;;;;;4996673;28;20630;-76
2022/08/17 13:04:28;;;;;;;4.88;3.13;;;;;;;;;;4996560;28;20550;-76
2022/08/17 13:06:57;;;;;;;4.50;3.10;;;;;;;;;;4985477;28;20194;-76
2022/08/17 13:09:29;;;;;;;3.70;3.17;;;;;;;;;;4976702;28;20257;-75
2022/08/17 13:12:07;;;;;;;3.45;3.15;;;;;;;;;;4977055;28;20189;-76
2022/08/17 13:14:35;;;;;;;4.35;3.17;;;;;;;;;;4976623;28;20317;-77
2022/08/17 13:17:05;;;;;;;3.40;3.10;;;;;;;;;;4976853;28;20205;-77
2022/08/17 13:19:47;;;;;;;3.20;2.90;;;;;;;;;;4977071;28;20670;-76
2022/08/17 13:22:17;;;;;;;4.25;3.20;;;;;;;;;;4976820;28;20209;-75
2022/08/17 13:24:53;;;;;;;5.60;3.20;;;;;;;;;;4976652;28;20201;-76
2022/08/17 13:27:22;;;;;;;5.03;3.22;;;;;;;;;;4976530;28;20225;-77
2022/08/17 13:29:52;;;;;;;4.57;3.05;;;;;;;;;;4988167;28;20224;-76
2022/08/17 13:32:22;;;;;;;3.38;3.08;;;;;;;;;;4995828;28;20215;-75
2022/08/17 13:34:57;;;;;;;4.47;3.45;;;;;;;;;;4995807;28;20688;-76
2022/08/17 13:37:56;;;;;;;3.83;3.20;;;;;;;;;;4996163;28;20197;-77
2022/08/17 13:40:33;;;;;;;4.75;3.40;;;;;;;;;;4995818;28;20221;-78
2022/08/17 13:43:02;;;;;;;6.82;3.20;;;;;;;;;;4996524;28;20190;-76
2022/08/17 13:45:36;;;;;;;3.35;3.05;;;;;;;;;;5011939;28;20212;-76
2022/08/17 13:48:08;;;;;;;5.32;2.95;;;;;;;;;;5013486;28;20199;-75
2022/08/17 13:50:43;;;;;;;3.20;2.90;;;;;;;;;;5013371;28;20211;-75
2022/08/17 13:53:20;;;;;;;3.05;2.75;;;;;;;;;;5013049;28;20189;-75
2022/08/17 13:55:51;;;;;;;3.15;2.85;;;;;;;;;;5012518;28;20203;-74
2022/08/17 13:58:21;;;;;;;4.05;3.00;;;;;;;;;;5013535;28;20271;-75
2022/08/17 14:00:50;;;;;;;4.80;2.92;;;;;;;;;;5013499;28;20208;-75
2022/08/17 14:03:19;;;;;;;3.08;2.70;;;;;;;;;;5013692;28;20200;-74
2022/08/17 14:05:50;;;;;;;4.97;2.92;;;;;;;;;;5012376;28;20777;-75
2022/08/17 14:08:20;;;;;;;3.85;2.53;;;;;;;;;;5015137;28;20592;-75
2022/08/17 14:10:51;;;;;;;2.85;2.65;;;;;;;;;;5013468;28;20232;-75
2022/08/17 14:13:20;;;;;;;5.30;2.75;;;;;;;;;;5013656;28;20263;-75
2022/08/17 14:15:48;;;;;;;3.45;2.90;;;;;;;;;;5011760;28;20225;-75
2022/08/17 14:18:24;;;;;;;4.95;2.80;;;;;;;;;;4982050;28;20713;-75
2022/08/17 14:21:14;;;;;;;4.22;3.00;;;;;;;;;;4981715;28;20208;-75
2022/08/17 14:23:44;;;;;;;2.92;2.72;;;;;;;;;;4974308;28;20221;-76
2022/08/17 14:26:26;;;;;;;3.97;2.88;;;;;;;;;;4992632;28;20213;-75
2022/08/17 14:28:55;;;;;;;2.95;2.63;;;;;;;;;;4994199;28;20233;-76
2022/08/17 14:31:26;;;;;;;4.90;2.70;;;;;;;;;;4992827;28;20197;-75
2022/08/17 14:33:55;;;;;;;4.88;3.03;;;;;;;;;;4992490;28;20229;-75
2022/08/17 14:36:26;;;;;;;5.90;2.83;;;;;;;;;;4995021;28;20216;-75
2022/08/17 14:38:55;;;;;;;5.38;3.30;;;;;;;;;;4994654;28;20283;-75
2022/08/17 14:41:24;;;;;;;3.63;3.08;;;;;;;;;;4994667;28;20205;-75
2022/08/17 14:43:53;;;;;;;3.28;2.97;;;;;;;;;;4994773;28;20310;-75
2022/08/17 14:46:21;;;;;;;4.80;3.10;;;;;;;;;;4991527;28;20206;-74
2022/08/17 14:48:52;;;;;;;3.17;2.88;;;;;;;;;;4994099;28;20229;-75
2022/08/17 14:51:26;;;;;;;4.80;3.05;;;;;;;;;;4981949;28;20204;-76
2022/08/17 14:53:56;;;;;;;3.60;3.08;;;;;;;;;;4986196;28;20268;-75
2022/08/17 14:56:25;;;;;;;3.03;2.72;;;;;;;;;;4994011;28;20205;-75
2022/08/17 14:58:58;;;;;;;3.20;2.90;;;;;;;;;;4994308;28;20304;-75
2022/08/17 15:01:27;;;;;;;8.40;3.00;;;;;;;;;;4996504;28;20634;-75
2022/08/17 15:03:56;;;;;;;3.80;2.90;;;;;;;;;;4994504;28;20205;-75
2022/08/17 15:06:25;;;;;;;3.85;2.70;;;;;;;;;;4994410;28;20280;-75
2022/08/17 15:08:53;;;;;;;3.17;2.92;;;;;;;;;;4994245;28;20689;-75
2022/08/17 15:11:23;;;;;;;3.17;2.83;;;;;;;;;;4992832;28;20204;-75
2022/08/17 15:13:52;;;;;;;4.95;2.60;;;;;;;;;;4993804;28;20263;-75
2022/08/17 15:16:22;;;;;;;5.03;2.90;;;;;;;;;;4992652;28;20209;-76
2022/08/17 15:18:51;;;;;;;4.22;3.00;;;;;;;;;;4993469;28;20221;-75
2022/08/17 15:21:20;;;;;;;5.03;2.63;;;;;;;;;;4993974;28;20209;-75
2022/08/17 15:23:48;;;;;;;3.75;2.90;;;;;;;;;;4993221;28;20213;-76
2022/08/17 15:26:18;;;;;;;4.03;2.80;;;;;;;;;;4989321;28;20244;-75
2022/08/17 15:28:55;;;;;;;4.45;2.60;;;;;;;;;;4991317;28;20717;-75
2022/08/17 15:31:24;;;;;;;4.93;2.63;;;;;;;;;;4991986;28;20554;-75
2022/08/17 15:33:59;;;;;;;3.42;2.72;;;;;;;;;;4991838;28;20216;-75
2022/08/17 15:36:28;;;;;;;4.97;2.90;;;;;;;;;;4987077;28;20229;-75